createdAt,value
2019-05-01T00:01:22.901Z,99107.45
2019-05-01T00:04:05.779Z,99111.87
2019-05-01T00:06:36.576Z,99113.16
2019-05-01T00:09:08.180Z,99113.95
2019-05-01T00:11:37.341Z,99121.59
2019-05-01T00:14:08.100Z,99110.70
2019-05-01T00:16:37.460Z,99116.55
2019-05-01T00:19:06.540Z,99118.63
2019-05-01T00:21:35.660Z,99111.07
2019-05-01T00:24:04.699Z,99109.34
2019-05-01T00:26:33.740Z,99108.10
2019-05-01T00:29:03.060Z,99109.14
2019-05-01T00:31:31.940Z,99106.73
2019-05-01T00:34:01.341Z,99116.78
2019-05-01T00:36:30.461Z,99107.05
2019-05-01T00:38:59.741Z,99106.02
2019-05-01T00:41:28.709Z,99109.00
2019-05-01T00:43:57.830Z,99111.41
2019-05-01T00:46:26.820Z,99116.92
2019-05-01T00:48:55.861Z,99111.07
2019-05-01T00:51:24.980Z,99115.61
2019-05-01T00:53:53.981Z,99113.11
2019-05-01T00:56:24.540Z,99118.23
2019-05-01T00:59:01.380Z,99122.40
2019-05-01T01:01:41.179Z,99123.97
2019-05-01T01:04:11.900Z,99130.80
2019-05-01T01:06:41.142Z,99132.39
2019-05-01T01:09:10.660Z,99124.37
2019-05-01T01:11:39.620Z,99128.20
2019-05-01T01:14:08.702Z,99133.72
2019-05-01T01:16:37.780Z,99116.71
2019-05-01T01:19:06.981Z,99113.95
2019-05-01T01:21:36.140Z,99118.81
2019-05-01T01:24:05.621Z,99113.77
2019-05-01T01:26:34.820Z,99113.16
2019-05-01T01:29:04.100Z,99114.54
2019-05-01T01:31:33.262Z,99122.14
2019-05-01T01:34:02.460Z,99117.66
2019-05-01T01:36:32.660Z,99121.66
2019-05-01T01:39:01.861Z,99114.95
2019-05-01T01:41:31.142Z,99116.30
2019-05-01T01:44:01.862Z,99118.41
2019-05-01T01:46:35.220Z,99113.70
2019-05-01T01:49:04.580Z,99118.13
2019-05-01T01:51:34.664Z,99117.45
2019-05-01T01:54:03.981Z,99108.17
2019-05-01T01:56:33.026Z,99109.58
2019-05-01T01:59:02.194Z,99118.43
2019-05-01T02:01:32.836Z,99117.70
2019-05-01T02:04:12.395Z,99119.66
2019-05-01T02:06:41.407Z,99120.62
2019-05-01T02:09:10.857Z,99118.33
2019-05-01T02:11:39.800Z,99117.60
2019-05-01T02:14:08.731Z,99112.59
2019-05-01T02:16:37.680Z,99113.09
2019-05-01T02:19:06.643Z,99115.47
2019-05-01T02:21:35.534Z,99113.75
2019-05-01T02:24:04.579Z,99113.88
2019-05-01T02:26:38.187Z,99106.26
2019-05-01T02:29:18.055Z,99098.35
2019-05-01T02:31:51.019Z,99104.32
2019-05-01T02:34:21.843Z,99101.56
2019-05-01T02:36:53.768Z,99097.42
2019-05-01T02:39:23.817Z,99103.58
2019-05-01T02:41:55.120Z,99099.83
2019-05-01T02:44:42.312Z,99092.66
2019-05-01T02:47:13.865Z,99096.53
2019-05-01T02:49:54.635Z,99100.36
2019-05-01T02:52:26.525Z,99095.75
2019-05-01T02:54:58.540Z,99086.01
2019-05-01T02:57:28.801Z,99091.77
2019-05-01T02:59:58.734Z,99094.20
2019-05-01T03:02:29.042Z,99093.73
2019-05-01T03:04:58.709Z,99089.92
2019-05-01T03:07:30.581Z,99099.20
2019-05-01T03:09:59.963Z,99092.90
2019-05-01T03:12:31.224Z,99098.06
2019-05-01T03:15:03.093Z,99093.11
2019-05-01T03:17:37.456Z,99089.06
2019-05-01T03:20:09.071Z,99087.63
2019-05-01T03:22:51.703Z,99080.77
2019-05-01T03:25:20.923Z,99080.55
2019-05-01T03:27:49.882Z,99086.19
2019-05-01T03:30:18.940Z,99091.94
2019-05-01T03:32:48.075Z,99094.46
2019-05-01T03:35:17.082Z,99089.59
2019-05-01T03:37:46.228Z,99088.42
2019-05-01T03:40:15.256Z,99087.05
2019-05-01T03:42:44.136Z,99090.27
2019-05-01T03:45:13.374Z,99090.94
2019-05-01T03:47:42.497Z,99084.09
2019-05-01T03:50:11.656Z,99081.42
2019-05-01T03:52:40.893Z,99083.80
2019-05-01T03:55:09.849Z,99085.19
2019-05-01T03:57:38.897Z,99079.92
2019-05-01T04:00:09.922Z,99081.98
2019-05-01T04:02:41.142Z,99087.24
2019-05-01T04:05:11.561Z,99083.87
2019-05-01T04:07:40.733Z,99087.46
2019-05-01T04:10:09.954Z,99084.52
2019-05-01T04:12:39.013Z,99091.19
2019-05-01T04:15:08.156Z,99087.64
2019-05-01T04:17:39.090Z,99083.91
2019-05-01T04:20:08.399Z,99080.89
2019-05-01T04:22:37.342Z,99084.03
2019-05-01T04:25:08.443Z,99090.75
2019-05-01T04:27:39.063Z,99083.66
2019-05-01T04:30:09.603Z,99092.75
2019-05-01T04:32:52.026Z,99096.05
2019-05-01T04:35:17.884Z,99092.49
2019-05-01T04:37:47.493Z,99093.22
2019-05-01T04:40:19.025Z,99097.09
2019-05-01T04:42:47.626Z,99099.08
2019-05-01T04:45:17.091Z,99089.67
2019-05-01T04:47:46.238Z,99084.64
2019-05-01T04:50:15.788Z,99090.64
2019-05-01T04:52:44.996Z,99090.45
2019-05-01T04:55:14.368Z,99089.52
2019-05-01T04:57:43.299Z,99084.92
2019-05-01T05:00:12.812Z,99097.86
2019-05-01T05:02:46.338Z,99098.63
2019-05-01T05:05:15.677Z,99095.25
2019-05-01T05:07:44.728Z,99097.89
2019-05-01T05:10:13.666Z,99098.06
2019-05-01T05:12:44.593Z,99092.59
2019-05-01T05:15:21.192Z,99099.91
2019-05-01T05:17:50.554Z,99101.25
2019-05-01T05:20:19.907Z,99096.89
2019-05-01T05:22:49.341Z,99091.67
2019-05-01T05:25:18.387Z,99092.02
2019-05-01T05:27:49.222Z,99099.27
2019-05-01T05:30:18.250Z,99102.97
2019-05-01T05:32:49.844Z,99102.76
2019-05-01T05:35:21.922Z,99098.77
2019-05-01T05:37:57.133Z,99093.70
2019-05-01T05:40:33.271Z,99098.94
2019-05-01T05:43:03.063Z,99098.55
2019-05-01T05:45:31.899Z,99100.93
2019-05-01T05:48:00.860Z,99112.30
2019-05-01T05:50:39.187Z,99101.64
2019-05-01T05:53:13.961Z,99102.22
2019-05-01T05:55:47.625Z,99099.61
2019-05-01T05:58:20.549Z,99098.20
2019-05-01T06:00:58.292Z,99096.23
2019-05-01T06:03:46.678Z,99099.47
2019-05-01T06:06:36.252Z,99104.05
2019-05-01T06:09:09.114Z,99105.05
2019-05-01T06:11:50.644Z,99103.10
2019-05-01T06:14:26.987Z,99102.59
2019-05-01T06:16:57.785Z,99100.42
2019-05-01T06:19:28.810Z,99107.89
2019-05-01T06:22:10.132Z,99100.07
2019-05-01T06:24:44.100Z,99110.80
2019-05-01T06:27:13.915Z,99092.19
2019-05-01T06:29:44.567Z,99104.09
2019-05-01T06:32:13.521Z,99100.38
2019-05-01T06:34:42.461Z,99095.45
2019-05-01T06:37:11.497Z,99096.46
2019-05-01T06:39:42.944Z,99089.58
2019-05-01T06:42:14.978Z,99089.40
2019-05-01T06:44:55.060Z,99091.89
2019-05-01T06:47:28.656Z,99101.31
2019-05-01T06:50:05.771Z,99105.69
2019-05-01T06:52:33.337Z,99095.39
2019-05-01T06:55:02.309Z,99097.78
2019-05-01T06:57:32.466Z,99094.73
2019-05-01T07:00:03.405Z,99106.42
2019-05-01T07:02:35.064Z,99088.19
2019-05-01T07:05:04.176Z,99092.91
2019-05-01T07:07:34.117Z,99091.44
2019-05-01T07:10:04.582Z,99095.28
2019-05-01T07:12:34.432Z,99095.02
2019-05-01T07:15:04.874Z,99090.62
2019-05-01T07:17:34.113Z,99085.25
2019-05-01T07:20:06.047Z,99087.80
2019-05-01T07:22:37.145Z,99094.09
2019-05-01T07:25:08.550Z,99091.12
2019-05-01T07:27:37.707Z,99089.42
2019-05-01T07:30:10.525Z,99092.78
2019-05-01T07:32:41.097Z,99093.16
2019-05-01T07:35:10.335Z,99095.02
2019-05-01T07:37:39.576Z,99093.41
2019-05-01T07:40:09.143Z,99084.19
2019-05-01T07:42:43.716Z,99091.56
2019-05-01T07:45:15.949Z,99084.83
2019-05-01T07:47:46.803Z,99087.56
2019-05-01T07:50:17.662Z,99086.33
2019-05-01T07:52:51.731Z,99092.42
2019-05-01T07:55:20.466Z,99087.83
2019-05-01T07:57:49.830Z,99088.00
2019-05-01T08:00:21.877Z,99089.73
2019-05-01T08:02:50.730Z,99087.31
2019-05-01T08:05:19.585Z,99082.75
2019-05-01T08:07:48.565Z,99091.21
2019-05-01T08:10:20.989Z,99088.66
2019-05-01T08:12:48.263Z,99095.89
2019-05-01T08:15:17.307Z,99091.50
2019-05-01T08:17:48.752Z,99081.88
2019-05-01T08:20:19.624Z,99082.82
2019-05-01T08:22:48.815Z,99078.85
2019-05-01T08:25:17.661Z,99083.22
2019-05-01T08:27:50.929Z,99077.34
2019-05-01T08:30:37.042Z,99073.98
2019-05-01T08:33:23.951Z,99079.66
2019-05-01T08:35:53.409Z,99073.39
2019-05-01T08:38:22.492Z,99071.84
2019-05-01T08:40:55.573Z,99073.70
2019-05-01T08:43:22.002Z,99072.18
2019-05-01T08:46:01.785Z,99079.36
2019-05-01T08:48:38.419Z,99064.10
2019-05-01T08:51:07.429Z,99079.09
2019-05-01T08:53:36.387Z,99073.13
2019-05-01T08:56:05.534Z,99078.23
2019-05-01T08:58:34.387Z,99060.00
2019-05-01T09:01:04.242Z,99068.64
2019-05-01T09:03:33.190Z,99071.72
2019-05-01T09:06:02.027Z,99070.13
2019-05-01T09:08:32.305Z,99058.46
2019-05-01T09:11:02.533Z,99057.66
2019-05-01T09:13:31.547Z,99067.94
2019-05-01T09:16:00.617Z,99058.49
2019-05-01T09:18:29.542Z,99062.66
2019-05-01T09:20:58.628Z,99062.87
2019-05-01T09:23:27.661Z,99070.93
2019-05-01T09:26:15.927Z,99066.81
2019-05-01T09:29:01.630Z,99059.16
2019-05-01T09:31:33.846Z,99055.52
2019-05-01T09:34:03.588Z,99059.62
2019-05-01T09:36:32.621Z,99053.50
2019-05-01T09:39:02.187Z,99048.60
2019-05-01T09:41:37.967Z,99043.84
2019-05-01T09:44:05.773Z,99041.10
2019-05-01T09:46:32.653Z,99049.47
2019-05-01T09:49:01.862Z,99045.03
2019-05-01T09:51:42.493Z,99045.70
2019-05-01T09:54:13.743Z,99047.53
2019-05-01T09:56:42.903Z,99036.35
2019-05-01T09:59:12.641Z,99045.66
2019-05-01T10:01:42.668Z,99036.62
2019-05-01T10:04:11.580Z,99034.69
2019-05-01T10:06:40.699Z,99033.61
2019-05-01T10:09:12.038Z,99023.52
2019-05-01T10:11:41.970Z,99032.41
2019-05-01T10:14:11.256Z,99034.23
2019-05-01T10:16:40.268Z,99026.93
2019-05-01T10:19:09.259Z,99029.48
2019-05-01T10:21:38.217Z,99033.67
2019-05-01T10:24:07.297Z,99020.94
2019-05-01T10:26:38.078Z,99017.02
2019-05-01T10:29:25.916Z,99018.86
2019-05-01T10:31:57.306Z,99017.44
2019-05-01T10:34:38.751Z,99027.25
2019-05-01T10:37:08.018Z,99021.20
2019-05-01T10:39:37.098Z,99018.12
2019-05-01T10:42:06.145Z,99019.27
2019-05-01T10:44:35.097Z,99015.09
2019-05-01T10:47:04.256Z,99019.02
2019-05-01T10:49:33.379Z,99021.03
2019-05-01T10:52:13.549Z,99015.92
2019-05-01T10:54:32.978Z,99021.53
2019-05-01T10:57:03.355Z,99017.62
2019-05-01T10:59:32.819Z,99012.47
2019-05-01T11:02:03.461Z,99011.52
2019-05-01T11:04:32.578Z,99015.39
2019-05-01T11:07:01.617Z,99018.69
2019-05-01T11:09:30.657Z,99001.52
2019-05-01T11:11:59.736Z,99002.02
2019-05-01T11:14:28.817Z,99002.48
2019-05-01T11:16:57.857Z,99023.50
2019-05-01T11:19:29.570Z,99003.06
2019-05-01T11:21:57.737Z,99002.09
2019-05-01T11:24:26.978Z,98995.43
2019-05-01T11:26:56.296Z,99001.29
2019-05-01T11:29:25.536Z,99003.28
2019-05-01T11:31:56.178Z,99001.31
2019-05-01T11:34:43.290Z,99002.87
2019-05-01T11:37:16.630Z,99011.05
2019-05-01T11:40:03.498Z,98999.69
2019-05-01T11:42:32.700Z,99007.59
2019-05-01T11:45:01.738Z,99002.45
2019-05-01T11:47:30.733Z,98994.41
2019-05-01T11:49:59.793Z,98993.16
2019-05-01T11:52:28.706Z,99000.44
2019-05-01T11:54:57.664Z,98990.31
2019-05-01T11:57:26.777Z,98996.73
2019-05-01T11:59:55.817Z,98987.73
2019-05-01T12:02:24.899Z,98975.25
2019-05-01T12:04:53.976Z,98978.84
2019-05-01T12:07:23.097Z,98984.36
2019-05-01T12:09:52.187Z,98973.31
2019-05-01T12:12:22.739Z,98976.31
2019-05-01T12:14:51.777Z,98979.19
2019-05-01T12:17:22.462Z,98975.40
2019-05-01T12:19:51.417Z,98978.13
2019-05-01T12:22:20.578Z,98970.42
2019-05-01T12:24:49.698Z,98968.50
2019-05-01T12:27:18.577Z,98963.84
2019-05-01T12:29:47.617Z,98962.42
2019-05-01T12:32:16.697Z,98958.23
2019-05-01T12:34:45.738Z,98950.54
2019-05-01T12:37:22.137Z,98954.87
2019-05-01T12:39:51.179Z,98952.92
2019-05-01T12:42:25.098Z,98948.09
2019-05-01T12:44:54.018Z,98950.41
2019-05-01T12:47:27.296Z,98943.68
2019-05-01T12:49:56.979Z,98937.08
2019-05-01T12:52:43.698Z,98937.18
2019-05-01T12:55:17.101Z,98934.65
2019-05-01T12:57:46.177Z,98956.73
2019-05-01T13:00:17.339Z,98946.38
2019-05-01T13:02:46.297Z,98951.04
2019-05-01T13:05:15.417Z,98942.48
2019-05-01T13:07:44.634Z,98937.59
2019-05-01T13:10:13.937Z,98941.61
2019-05-01T13:12:42.978Z,98928.52
2019-05-01T13:15:12.256Z,98927.14
2019-05-01T13:17:41.176Z,98920.65
2019-05-01T13:20:10.217Z,98931.54
2019-05-01T13:22:39.387Z,98931.27
2019-05-01T13:25:08.736Z,98911.25
2019-05-01T13:27:42.296Z,98911.02
2019-05-01T13:30:21.777Z,98913.62
2019-05-01T13:32:52.349Z,98913.50
2019-05-01T13:35:21.336Z,98912.16
2019-05-01T13:37:50.407Z,98905.49
2019-05-01T13:40:19.964Z,98897.63
2019-05-01T13:42:49.032Z,98898.16
2019-05-01T13:45:18.497Z,98893.52
2019-05-01T13:47:47.418Z,98891.63
2019-05-01T13:50:16.458Z,98887.70
2019-05-01T13:52:45.658Z,98878.44
2019-05-01T13:55:15.376Z,98874.56
2019-05-01T13:57:44.506Z,98892.28
2019-05-01T14:00:14.138Z,98881.00
2019-05-01T14:02:43.178Z,98876.97
2019-05-01T14:05:12.259Z,98875.36
2019-05-01T14:07:41.256Z,98878.64
2019-05-01T14:10:10.536Z,98868.19
2019-05-01T14:12:39.578Z,98861.42
2019-05-01T14:15:10.185Z,98870.13
2019-05-01T14:17:39.216Z,98851.36
2019-05-01T14:20:19.258Z,98861.41
2019-05-01T14:22:49.896Z,98861.71
2019-05-01T14:25:18.858Z,98858.77
2019-05-01T14:27:47.938Z,98862.02
2019-05-01T14:30:17.018Z,98854.05
2019-05-01T14:32:46.098Z,98851.41
2019-05-01T14:35:15.298Z,98856.08
2019-05-01T14:37:44.377Z,98859.69
2019-05-01T14:40:13.816Z,98852.75
2019-05-01T14:42:42.944Z,98857.77
2019-05-01T14:45:12.298Z,98851.03
2019-05-01T14:47:41.262Z,98863.48
2019-05-01T14:50:10.698Z,98844.33
2019-05-01T14:52:39.867Z,98843.70
2019-05-01T14:55:09.025Z,98848.44
2019-05-01T14:57:38.146Z,98847.63
2019-05-01T15:00:11.338Z,98847.51
2019-05-01T15:02:40.336Z,98855.91
2019-05-01T15:05:09.577Z,98847.47
2019-05-01T15:07:43.773Z,98845.74
2019-05-01T15:10:09.656Z,98831.01
2019-05-01T15:12:39.698Z,98849.70
2019-05-01T15:15:19.338Z,98849.06
2019-05-01T15:17:56.098Z,98848.41
2019-05-01T15:20:25.137Z,98849.05
2019-05-01T15:22:54.264Z,98843.25
2019-05-01T15:25:23.329Z,98851.46
2019-05-01T15:27:52.275Z,98845.59
2019-05-01T15:30:21.457Z,98842.59
2019-05-01T15:32:50.420Z,98845.91
2019-05-01T15:35:19.300Z,98843.16
2019-05-01T15:37:56.504Z,98842.61
2019-05-01T15:40:29.282Z,98841.25
2019-05-01T15:43:02.692Z,98835.20
2019-05-01T15:45:31.619Z,98831.68
2019-05-01T15:48:00.693Z,98829.14
2019-05-01T15:50:29.595Z,98833.38
2019-05-01T15:52:58.621Z,98820.25
2019-05-01T15:55:27.698Z,98830.31
2019-05-01T15:57:56.577Z,98804.09
2019-05-01T16:00:25.432Z,98816.95
2019-05-01T16:02:54.499Z,98814.27
2019-05-01T16:05:23.418Z,98813.87
2019-05-01T16:07:52.469Z,98813.60
2019-05-01T16:10:23.201Z,98811.58
2019-05-01T16:12:56.145Z,98804.95
2019-05-01T16:15:25.879Z,98800.89
2019-05-01T16:17:55.016Z,98797.37
2019-05-01T16:20:23.907Z,98802.45
2019-05-01T16:22:53.060Z,98798.44
2019-05-01T16:25:22.258Z,98802.13
2019-05-01T16:27:51.417Z,98799.20
2019-05-01T16:30:22.483Z,98798.16
2019-05-01T16:32:51.650Z,98802.08
2019-05-01T16:35:20.738Z,98793.42
2019-05-01T16:37:49.892Z,98794.76
2019-05-01T16:40:20.696Z,98799.83
2019-05-01T16:42:49.699Z,98798.74
2019-05-01T16:45:18.897Z,98799.37
2019-05-01T16:47:48.098Z,98801.58
2019-05-01T16:50:17.377Z,98804.87
2019-05-01T16:52:46.510Z,98805.94
2019-05-01T16:55:17.458Z,98804.23
2019-05-01T16:57:46.658Z,98808.36
2019-05-01T17:00:16.377Z,98802.29
2019-05-01T17:02:59.339Z,98804.14
2019-05-01T17:05:30.297Z,98800.47
2019-05-01T17:08:09.976Z,98810.70
2019-05-01T17:10:40.817Z,98804.73
2019-05-01T17:13:09.777Z,98804.01
2019-05-01T17:15:42.337Z,98806.56
2019-05-01T17:18:11.819Z,98801.36
2019-05-01T17:20:41.138Z,98810.09
2019-05-01T17:23:10.458Z,98807.40
2019-05-01T17:25:39.736Z,98808.38
2019-05-01T17:28:09.459Z,98805.00
2019-05-01T17:30:43.778Z,98804.38
2019-05-01T17:33:19.535Z,98811.87
2019-05-01T17:35:44.056Z,98805.31
2019-05-01T17:38:13.458Z,98805.10
2019-05-01T17:40:42.776Z,98803.52
2019-05-01T17:43:13.426Z,98806.48
2019-05-01T17:45:43.257Z,98806.19
2019-05-01T17:48:12.489Z,98815.25
2019-05-01T17:50:41.777Z,98810.50
2019-05-01T17:53:11.216Z,98809.88
2019-05-01T17:55:40.536Z,98815.58
2019-05-01T17:58:09.856Z,98817.24
2019-05-01T18:00:42.017Z,98815.58
2019-05-01T18:03:12.737Z,98812.55
2019-05-01T18:06:01.367Z,98818.85
2019-05-01T18:08:31.136Z,98824.73
2019-05-01T18:11:00.501Z,98810.89
2019-05-01T18:13:29.896Z,98817.94
2019-05-01T18:15:59.576Z,98820.47
2019-05-01T18:18:28.858Z,98832.75
2019-05-01T18:20:58.259Z,98827.02
2019-05-01T18:23:47.589Z,98824.19
2019-05-01T18:26:20.457Z,98824.33
2019-05-01T18:29:09.416Z,98830.92
2019-05-01T18:31:39.017Z,98825.58
2019-05-01T18:34:08.297Z,98825.13
2019-05-01T18:36:54.888Z,98837.71
2019-05-01T18:39:32.659Z,98833.20
2019-05-01T18:42:06.697Z,98834.47
2019-05-01T18:44:35.333Z,98830.27
2019-05-01T18:47:04.939Z,98829.27
2019-05-01T18:49:34.459Z,98829.79
2019-05-01T18:52:05.239Z,98832.04
2019-05-01T18:54:35.158Z,98837.66
2019-05-01T18:57:06.737Z,98840.77
2019-05-01T18:59:36.059Z,98839.18
2019-05-01T19:02:06.424Z,98840.17
2019-05-01T19:04:37.546Z,98840.57
2019-05-01T19:07:07.097Z,98843.25
2019-05-01T19:09:37.087Z,98836.64
2019-05-01T19:12:09.100Z,98839.88
2019-05-01T19:14:38.497Z,98841.78
2019-05-01T19:17:10.658Z,98839.91
2019-05-01T19:19:41.355Z,98839.37
2019-05-01T19:22:10.867Z,98839.02
2019-05-01T19:24:44.459Z,98837.86
2019-05-01T19:27:18.367Z,98831.84
2019-05-01T19:29:45.783Z,98838.06
2019-05-01T19:32:20.338Z,98831.12
2019-05-01T19:34:51.139Z,98834.54
2019-05-01T19:37:23.822Z,98827.94
2019-05-01T19:39:55.817Z,98826.37
2019-05-01T19:42:27.000Z,98824.68
2019-05-01T19:44:57.933Z,98822.70
2019-05-01T19:47:29.462Z,98823.33
2019-05-01T19:50:06.597Z,98815.05
2019-05-01T19:52:32.390Z,98817.34
2019-05-01T19:55:06.315Z,98816.69
2019-05-01T19:57:36.339Z,98819.71
2019-05-01T20:00:08.746Z,98817.88
2019-05-01T20:02:38.177Z,98817.16
2019-05-01T20:05:11.110Z,98820.67
2019-05-01T20:07:40.217Z,98820.34
2019-05-01T20:10:10.959Z,98822.75
2019-05-01T20:12:40.858Z,98823.89
2019-05-01T20:15:10.457Z,98816.48
2019-05-01T20:17:39.738Z,98818.00
2019-05-01T20:20:09.177Z,98814.97
2019-05-01T20:22:38.578Z,98813.53
2019-05-01T20:25:07.940Z,98817.99
2019-05-01T20:27:39.547Z,98818.64
2019-05-01T20:30:08.857Z,98817.99
2019-05-01T20:32:38.146Z,98811.95
2019-05-01T20:35:07.700Z,98818.22
2019-05-01T20:37:37.096Z,98821.80
2019-05-01T20:40:11.366Z,98812.87
2019-05-01T20:42:38.856Z,98813.77
2019-05-01T20:45:13.017Z,98812.56
2019-05-01T20:47:45.107Z,98811.05
2019-05-01T20:50:13.864Z,98801.58
2019-05-01T20:52:42.537Z,98805.92
2019-05-01T20:55:11.819Z,98804.23
2019-05-01T20:57:42.407Z,98798.56
2019-05-01T21:00:16.768Z,98797.98
2019-05-01T21:02:44.591Z,98796.95
2019-05-01T21:05:18.258Z,98795.80
2019-05-01T21:07:52.039Z,98795.35
2019-05-01T21:10:24.913Z,98789.68
2019-05-01T21:12:52.058Z,98791.64
2019-05-01T21:15:24.844Z,98792.41
2019-05-01T21:17:51.738Z,98791.00
2019-05-01T21:20:20.853Z,98785.11
2019-05-01T21:22:49.738Z,98792.52
2019-05-01T21:25:18.727Z,98791.92
2019-05-01T21:27:47.658Z,98793.44
2019-05-01T21:30:16.858Z,98798.55
2019-05-01T21:32:45.817Z,98787.76
2019-05-01T21:35:14.899Z,98788.14
2019-05-01T21:37:43.857Z,98789.27
2019-05-01T21:40:13.459Z,98788.34
2019-05-01T21:42:42.945Z,98793.61
2019-05-01T21:45:12.816Z,98791.15
2019-05-01T21:47:42.647Z,98792.62
2019-05-01T21:50:13.321Z,98790.51
2019-05-01T21:52:43.773Z,98793.50
2019-05-01T21:55:12.980Z,98788.56
2019-05-01T21:57:42.056Z,98795.15
2019-05-01T22:00:11.537Z,98787.31
2019-05-01T22:02:41.625Z,98792.50
2019-05-01T22:05:11.738Z,98784.83
2019-05-01T22:07:40.736Z,98790.86
2019-05-01T22:10:10.410Z,98788.17
2019-05-01T22:12:39.498Z,98785.62
2019-05-01T22:15:10.965Z,98784.41
2019-05-01T22:17:51.859Z,98787.20
2019-05-01T22:20:22.496Z,98779.74
2019-05-01T22:22:53.216Z,98780.73
2019-05-01T22:25:23.785Z,98775.88
2019-05-01T22:27:54.424Z,98785.51
2019-05-01T22:30:27.496Z,98779.41
2019-05-01T22:32:58.338Z,98775.20
2019-05-01T22:35:28.778Z,98774.08
2019-05-01T22:37:57.662Z,98778.83
2019-05-01T22:40:28.138Z,98778.38
2019-05-01T22:42:57.056Z,98773.47
2019-05-01T22:45:26.497Z,98774.70
2019-05-01T22:47:55.617Z,98773.27
2019-05-01T22:50:24.699Z,98770.36
2019-05-01T22:52:53.709Z,98774.12
2019-05-01T22:55:25.389Z,98769.03
2019-05-01T22:57:53.336Z,98773.31
2019-05-01T23:00:29.777Z,98772.52
2019-05-01T23:03:05.411Z,98770.35
2019-05-01T23:05:31.096Z,98771.36
2019-05-01T23:08:00.220Z,98766.73
2019-05-01T23:10:30.696Z,98756.55
2019-05-01T23:12:59.859Z,98753.13
2019-05-01T23:15:30.461Z,98760.83
2019-05-01T23:17:59.498Z,98758.80
2019-05-01T23:20:28.435Z,98760.20
2019-05-01T23:22:57.538Z,98752.80
2019-05-01T23:25:26.617Z,98753.34
2019-05-01T23:27:55.537Z,98755.45
2019-05-01T23:30:24.938Z,98754.01
2019-05-01T23:32:53.816Z,98748.88
2019-05-01T23:35:22.856Z,98753.34
2019-05-01T23:37:52.057Z,98750.91
2019-05-01T23:40:21.138Z,98746.03
2019-05-01T23:42:53.691Z,98749.16
2019-05-01T23:45:21.066Z,98745.81
2019-05-01T23:47:50.136Z,98743.45
2019-05-01T23:50:19.216Z,98741.28
2019-05-01T23:52:48.339Z,98735.72
2019-05-01T23:55:17.498Z,98731.75
2019-05-01T23:57:46.576Z,98735.14
